createdAt,value
2022-12-18T00:01:28.096Z,95163.34
2022-12-18T00:03:56.763Z,95162.00
2022-12-18T00:06:25.382Z,95151.97
2022-12-18T00:08:52.408Z,95144.16
2022-12-18T00:11:22.730Z,95154.56
2022-12-18T00:13:50.428Z,95152.28
2022-12-18T00:16:23.207Z,95152.00
2022-12-18T00:18:51.930Z,95150.13
2022-12-18T00:21:19.304Z,95156.19
2022-12-18T00:23:46.327Z,95158.06
2022-12-18T00:26:24.411Z,95151.06
2022-12-18T00:28:57.636Z,95162.31
2022-12-18T00:31:25.831Z,95163.09
2022-12-18T00:33:56.393Z,95168.66
2022-12-18T00:36:26.643Z,95165.06
2022-12-18T00:38:55.806Z,95174.06
2022-12-18T00:41:42.007Z,95181.75
2022-12-18T00:44:11.609Z,95167.59
2022-12-18T00:46:38.392Z,95173.41
2022-12-18T00:49:05.944Z,95175.38
2022-12-18T00:51:32.756Z,95186.50
2022-12-18T00:53:59.629Z,95179.25
2022-12-18T00:56:26.635Z,95185.66
2022-12-18T00:58:53.957Z,95181.19
2022-12-18T01:01:21.155Z,95182.28
2022-12-18T01:03:48.335Z,95185.06
2022-12-18T01:06:17.594Z,95192.75
2022-12-18T01:08:44.896Z,95190.69
2022-12-18T01:11:19.063Z,95195.91
2022-12-18T01:13:45.787Z,95186.28
2022-12-18T01:16:14.831Z,95184.88
2022-12-18T01:18:41.667Z,95176.38
2022-12-18T01:21:13.027Z,95182.88
2022-12-18T01:23:40.558Z,95187.28
2022-12-18T01:26:10.302Z,95181.69
2022-12-18T01:28:37.768Z,95184.84
2022-12-18T01:31:12.304Z,95190.78
2022-12-18T01:33:39.369Z,95186.19
2022-12-18T01:36:06.776Z,95192.19
2022-12-18T01:38:33.449Z,95197.31
2022-12-18T01:41:00.985Z,95196.50
2022-12-18T01:43:58.286Z,95202.22
2022-12-18T01:46:26.703Z,95194.72
2022-12-18T01:49:02.259Z,95205.97
2022-12-18T01:51:31.479Z,95211.72
2022-12-18T01:54:00.118Z,95212.25
2022-12-18T01:56:26.880Z,95210.09
2022-12-18T01:59:05.700Z,95200.59
2022-12-18T02:01:33.809Z,95207.47
2022-12-18T02:04:23.636Z,95212.81
2022-12-18T02:07:05.089Z,95205.81
2022-12-18T02:09:40.033Z,95197.88
2022-12-18T02:12:21.428Z,95201.81
2022-12-18T02:15:09.594Z,95204.50
2022-12-18T02:17:51.155Z,95215.22
2022-12-18T02:20:24.768Z,95194.91
2022-12-18T02:23:24.676Z,95194.81
2022-12-18T02:26:27.247Z,95191.69
2022-12-18T02:29:11.488Z,95194.38
2022-12-18T02:31:46.423Z,95196.16
2022-12-18T02:34:15.886Z,95190.59
2022-12-18T02:36:45.343Z,95194.06
2022-12-18T02:39:15.051Z,95203.25
2022-12-18T02:41:51.900Z,95207.66
2022-12-18T02:44:19.444Z,95210.69
2022-12-18T02:46:55.765Z,95211.69
2022-12-18T02:49:50.651Z,95215.72
2022-12-18T02:52:43.798Z,95209.94
2022-12-18T02:55:47.270Z,95205.94
2022-12-18T02:58:25.633Z,95212.00
2022-12-18T03:01:03.526Z,95204.44
2022-12-18T03:03:37.698Z,95202.66
2022-12-18T03:06:15.898Z,95213.72
2022-12-18T03:08:48.188Z,95206.91
2022-12-18T03:11:16.494Z,95208.50
2022-12-18T03:13:52.004Z,95206.91
2022-12-18T03:16:25.089Z,95211.78
2022-12-18T03:18:58.406Z,95214.19
2022-12-18T03:21:47.883Z,95219.22
2022-12-18T03:24:18.119Z,95216.19
2022-12-18T03:26:54.523Z,95215.63
2022-12-18T03:29:27.993Z,95214.00
2022-12-18T03:32:05.963Z,95213.25
2022-12-18T03:34:36.440Z,95214.91
2022-12-18T03:37:07.189Z,95213.53
2022-12-18T03:39:35.969Z,95206.78
2022-12-18T03:42:16.922Z,95215.16
2022-12-18T03:45:04.036Z,95205.72
2022-12-18T03:47:53.849Z,95197.50
2022-12-18T03:50:35.220Z,95213.97
2022-12-18T03:53:18.177Z,95205.19
2022-12-18T03:55:48.965Z,95207.19
2022-12-18T03:58:20.794Z,95211.56
2022-12-18T04:00:57.959Z,95214.00
2022-12-18T04:03:26.750Z,95205.75
2022-12-18T04:05:56.323Z,95213.97
2022-12-18T04:08:24.933Z,95209.94
2022-12-18T04:11:01.645Z,95223.06
2022-12-18T04:13:39.220Z,95223.22
2022-12-18T04:16:11.562Z,95216.44
2022-12-18T04:18:42.011Z,95219.25
2022-12-18T04:21:09.184Z,95219.88
2022-12-18T04:23:37.087Z,95228.28
2022-12-18T04:26:04.039Z,95214.19
2022-12-18T04:28:45.735Z,95202.56
2022-12-18T04:31:13.632Z,95209.00
2022-12-18T04:33:41.076Z,95222.38
2022-12-18T04:36:08.722Z,95226.16
2022-12-18T04:38:35.488Z,95225.16
2022-12-18T04:41:07.596Z,95225.41
2022-12-18T04:43:36.301Z,95234.63
2022-12-18T04:46:07.963Z,95226.78
2022-12-18T04:48:35.679Z,95233.41
2022-12-18T04:51:03.255Z,95228.56
2022-12-18T04:53:29.938Z,95235.00
2022-12-18T04:56:07.941Z,95225.59
2022-12-18T04:58:34.676Z,95233.41
2022-12-18T05:01:01.998Z,95245.22
2022-12-18T05:03:30.234Z,95244.81
2022-12-18T05:05:56.959Z,95243.81
2022-12-18T05:08:23.637Z,95239.84
2022-12-18T05:10:50.290Z,95241.63
2022-12-18T05:13:16.982Z,95248.22
2022-12-18T05:15:43.650Z,95243.22
2022-12-18T05:18:10.378Z,95250.63
2022-12-18T05:20:37.088Z,95248.84
2022-12-18T05:23:03.827Z,95260.06
2022-12-18T05:25:30.550Z,95256.84
2022-12-18T05:27:57.607Z,95251.25
2022-12-18T05:30:24.722Z,95255.91
2022-12-18T05:32:51.385Z,95253.31
2022-12-18T05:35:18.378Z,95271.50
2022-12-18T05:37:45.235Z,95265.31
2022-12-18T05:40:12.592Z,95258.13
2022-12-18T05:42:39.391Z,95263.00
2022-12-18T05:45:06.837Z,95251.59
2022-12-18T05:47:33.694Z,95250.41
2022-12-18T05:50:00.370Z,95257.22
2022-12-18T05:52:27.116Z,95252.81
2022-12-18T05:54:53.764Z,95239.97
2022-12-18T05:57:20.438Z,95243.19
2022-12-18T05:59:47.066Z,95246.38
2022-12-18T06:02:13.912Z,95248.97
2022-12-18T06:04:40.645Z,95249.59
2022-12-18T06:07:07.372Z,95258.22
2022-12-18T06:09:34.083Z,95251.66
2022-12-18T06:12:00.844Z,95258.09
2022-12-18T06:14:27.532Z,95258.84
2022-12-18T06:16:54.203Z,95258.91
2022-12-18T06:19:20.903Z,95268.88
2022-12-18T06:21:47.781Z,95268.13
2022-12-18T06:24:14.423Z,95263.28
2022-12-18T06:26:41.262Z,95272.94
2022-12-18T06:29:08.015Z,95264.78
2022-12-18T06:31:34.842Z,95267.97
2022-12-18T06:34:04.092Z,95267.25
2022-12-18T06:36:32.028Z,95273.13
2022-12-18T06:38:58.721Z,95284.56
2022-12-18T06:41:25.521Z,95286.19
2022-12-18T06:43:55.569Z,95289.78
2022-12-18T06:46:24.881Z,95279.59
2022-12-18T06:48:51.690Z,95276.63
2022-12-18T06:51:22.502Z,95273.41
2022-12-18T06:53:49.989Z,95276.63
2022-12-18T06:56:17.032Z,95291.28
2022-12-18T06:58:43.759Z,95285.06
2022-12-18T07:01:12.239Z,95288.25
2022-12-18T07:03:41.140Z,95289.44
2022-12-18T07:06:18.333Z,95292.06
2022-12-18T07:08:46.291Z,95299.09
2022-12-18T07:11:13.597Z,95298.97
2022-12-18T07:13:40.661Z,95289.78
2022-12-18T07:16:18.386Z,95300.00
2022-12-18T07:18:47.935Z,95304.03
2022-12-18T07:21:17.216Z,95302.25
2022-12-18T07:23:44.790Z,95301.44
2022-12-18T07:26:13.779Z,95317.69
2022-12-18T07:28:41.852Z,95322.06
2022-12-18T07:31:11.401Z,95326.06
2022-12-18T07:33:38.976Z,95327.50
2022-12-18T07:36:07.751Z,95331.09
2022-12-18T07:38:36.273Z,95344.72
2022-12-18T07:41:08.540Z,95339.25
2022-12-18T07:43:36.455Z,95341.50
2022-12-18T07:46:03.877Z,95341.31
2022-12-18T07:48:30.619Z,95348.13
2022-12-18T07:51:01.395Z,95348.75
2022-12-18T07:53:28.632Z,95350.13
2022-12-18T07:56:26.482Z,95353.94
2022-12-18T07:58:49.971Z,95344.31
2022-12-18T08:01:16.803Z,95340.69
2022-12-18T08:03:44.072Z,95351.97
2022-12-18T08:06:11.211Z,95345.31
2022-12-18T08:08:38.106Z,95350.56
2022-12-18T08:11:04.988Z,95354.59
2022-12-18T08:13:31.838Z,95353.72
2022-12-18T08:15:59.333Z,95357.94
2022-12-18T08:18:26.437Z,95344.91
2022-12-18T08:20:53.172Z,95348.75
2022-12-18T08:23:20.229Z,95348.34
2022-12-18T08:25:47.089Z,95346.34
2022-12-18T08:28:13.864Z,95349.38
2022-12-18T08:30:40.548Z,95344.97
2022-12-18T08:33:07.645Z,95358.13
2022-12-18T08:35:42.525Z,95340.31
2022-12-18T08:38:12.195Z,95348.63
2022-12-18T08:40:38.847Z,95345.63
2022-12-18T08:43:24.529Z,95327.78
2022-12-18T08:45:51.376Z,95337.63
2022-12-18T08:48:22.172Z,95342.84
2022-12-18T08:51:00.001Z,95341.09
2022-12-18T08:53:30.355Z,95347.13
2022-12-18T08:56:00.766Z,95348.31
2022-12-18T08:58:27.448Z,95359.53
2022-12-18T09:00:54.129Z,95360.16
2022-12-18T09:03:23.560Z,95357.72
2022-12-18T09:05:51.097Z,95358.53
2022-12-18T09:08:17.739Z,95344.28
2022-12-18T09:10:49.255Z,95344.38
2022-12-18T09:13:17.171Z,95338.81
2022-12-18T09:15:53.721Z,95349.91
2022-12-18T09:18:23.370Z,95348.44
2022-12-18T09:20:52.749Z,95352.00
2022-12-18T09:23:19.890Z,95346.69
2022-12-18T09:25:46.565Z,95350.84
2022-12-18T09:28:15.726Z,95345.66
2022-12-18T09:30:48.436Z,95347.88
2022-12-18T09:33:15.557Z,95337.25
2022-12-18T09:35:44.157Z,95332.03
2022-12-18T09:38:19.339Z,95337.22
2022-12-18T09:40:58.627Z,95331.81
2022-12-18T09:43:42.313Z,95326.81
2022-12-18T09:46:17.187Z,95338.63
2022-12-18T09:48:48.715Z,95337.25
2022-12-18T09:51:46.310Z,95334.44
2022-12-18T09:54:18.849Z,95341.34
2022-12-18T09:56:45.795Z,95342.50
2022-12-18T09:59:27.602Z,95338.16
2022-12-18T10:01:55.234Z,95333.31
2022-12-18T10:04:22.032Z,95345.56
2022-12-18T10:07:17.352Z,95349.97
2022-12-18T10:10:07.509Z,95346.00
2022-12-18T10:12:47.408Z,95329.16
2022-12-18T10:15:29.791Z,95340.59
2022-12-18T10:18:07.494Z,95328.16
2022-12-18T10:20:38.638Z,95315.50
2022-12-18T10:23:19.493Z,95312.28
2022-12-18T10:26:04.402Z,95318.09
2022-12-18T10:28:33.287Z,95317.72
2022-12-18T10:30:59.987Z,95316.94
2022-12-18T10:33:31.309Z,95319.53
2022-12-18T10:35:58.404Z,95312.34
2022-12-18T10:38:30.902Z,95321.53
2022-12-18T10:40:59.078Z,95325.59
2022-12-18T10:43:33.893Z,95317.34
2022-12-18T10:46:17.995Z,95323.38
2022-12-18T10:48:47.643Z,95314.34
2022-12-18T10:51:26.202Z,95313.94
2022-12-18T10:54:22.045Z,95324.59
2022-12-18T10:56:49.608Z,95320.97
2022-12-18T10:59:18.335Z,95330.63
2022-12-18T11:01:59.471Z,95330.22
2022-12-18T11:04:27.907Z,95328.16
2022-12-18T11:06:57.855Z,95324.97
2022-12-18T11:09:29.915Z,95332.22
2022-12-18T11:12:00.291Z,95329.41
2022-12-18T11:14:57.500Z,95329.00
2022-12-18T11:17:33.351Z,95337.06
2022-12-18T11:20:27.609Z,95333.66
2022-12-18T11:23:04.284Z,95338.25
2022-12-18T11:25:34.977Z,95338.25
2022-12-18T11:28:05.161Z,95333.25
2022-12-18T11:30:37.549Z,95333.81
2022-12-18T11:33:06.550Z,95327.38
2022-12-18T11:35:58.628Z,95322.16
2022-12-18T11:38:29.882Z,95312.94
2022-12-18T11:41:19.873Z,95323.38
2022-12-18T11:43:53.999Z,95311.34
2022-12-18T11:46:56.661Z,95312.31
2022-12-18T11:49:36.514Z,95299.88
2022-12-18T11:52:12.994Z,95307.91
2022-12-18T11:54:39.628Z,95299.47
2022-12-18T11:57:24.900Z,95298.88
2022-12-18T12:00:02.178Z,95299.06
2022-12-18T12:03:04.306Z,95290.22
2022-12-18T12:05:55.466Z,95293.22
2022-12-18T12:08:41.219Z,95294.44
2022-12-18T12:11:19.956Z,95296.44
2022-12-18T12:14:29.952Z,95284.03
2022-12-18T12:17:28.076Z,95280.19
2022-12-18T12:20:36.881Z,95271.75
2022-12-18T12:23:11.308Z,95269.56
2022-12-18T12:25:43.910Z,95269.13
2022-12-18T12:28:13.505Z,95265.16
2022-12-18T12:30:48.893Z,95268.94
2022-12-18T12:33:41.401Z,95263.13
2022-12-18T12:36:08.214Z,95256.28
2022-12-18T12:38:51.565Z,95248.88
2022-12-18T12:41:41.306Z,95259.94
2022-12-18T12:44:14.584Z,95255.72
2022-12-18T12:46:43.459Z,95254.88
2022-12-18T12:49:19.398Z,95254.50
2022-12-18T12:51:54.422Z,95245.84
2022-12-18T12:54:25.617Z,95246.66
2022-12-18T12:56:59.115Z,95258.31
2022-12-18T12:59:35.537Z,95261.50
2022-12-18T13:02:30.569Z,95264.31
2022-12-18T13:05:03.037Z,95267.13
2022-12-18T13:07:51.238Z,95258.72
2022-12-18T13:10:19.148Z,95260.91
2022-12-18T13:13:01.924Z,95273.56
2022-12-18T13:15:31.597Z,95263.13
2022-12-18T13:18:21.382Z,95260.91
2022-12-18T13:21:23.041Z,95258.09
2022-12-18T13:23:50.205Z,95257.91
2022-12-18T13:26:23.384Z,95266.94
2022-12-18T13:28:57.244Z,95271.56
2022-12-18T13:31:42.524Z,95265.16
2022-12-18T13:34:29.408Z,95270.78
2022-12-18T13:37:18.366Z,95270.38
2022-12-18T13:39:45.117Z,95272.38
2022-12-18T13:42:32.609Z,95264.34
2022-12-18T13:44:59.348Z,95272.19
2022-12-18T13:47:34.756Z,95264.75
2022-12-18T13:50:03.797Z,95273.19
2022-12-18T13:52:38.386Z,95267.53
2022-12-18T13:55:15.751Z,95266.75
2022-12-18T13:57:42.518Z,95268.75
2022-12-18T14:00:36.263Z,95270.38
2022-12-18T14:03:03.156Z,95260.53
2022-12-18T14:05:32.521Z,95256.13
2022-12-18T14:08:06.644Z,95257.50
2022-12-18T14:10:47.648Z,95246.09
2022-12-18T14:13:31.904Z,95255.91
2022-12-18T14:16:03.783Z,95257.72
2022-12-18T14:18:46.958Z,95255.50
2022-12-18T14:21:33.576Z,95261.72
2022-12-18T14:24:19.506Z,95259.13
2022-12-18T14:26:48.558Z,95260.72
2022-12-18T14:29:26.817Z,95259.53
2022-12-18T14:32:18.855Z,95259.50
2022-12-18T14:34:51.344Z,95271.97
2022-12-18T14:37:22.229Z,95269.53
2022-12-18T14:40:10.492Z,95273.38
2022-12-18T14:42:38.516Z,95268.53
2022-12-18T14:45:42.049Z,95220.56
2022-12-18T14:48:12.417Z,95274.75
2022-12-18T14:50:40.696Z,95278.78
2022-12-18T14:53:07.426Z,95274.16
2022-12-18T14:55:34.215Z,95281.16
2022-12-18T14:58:00.877Z,95271.31
2022-12-18T15:00:28.001Z,95270.31
2022-12-18T15:02:57.637Z,95266.69
2022-12-18T15:05:29.176Z,95265.09
2022-12-18T15:07:58.569Z,95271.50
2022-12-18T15:10:30.845Z,95269.69
2022-12-18T15:12:57.517Z,95269.13
2022-12-18T15:15:43.428Z,95282.56
2022-12-18T15:18:11.475Z,95291.00
2022-12-18T15:20:56.073Z,95277.75
2022-12-18T15:23:24.288Z,95278.75
2022-12-18T15:25:59.875Z,95276.31
2022-12-18T15:28:28.328Z,95269.31
2022-12-18T15:31:17.812Z,95273.53
2022-12-18T15:33:53.171Z,95276.72
2022-12-18T15:36:26.413Z,95286.53
2022-12-18T15:38:55.056Z,95280.31
2022-12-18T15:41:24.912Z,95272.31
2022-12-18T15:43:53.271Z,95276.72
2022-12-18T15:46:22.430Z,95276.13
2022-12-18T15:48:54.404Z,95282.75
2022-12-18T15:51:34.228Z,95275.91
2022-12-18T15:54:04.744Z,95277.13
2022-12-18T15:56:51.262Z,95279.13
2022-12-18T15:59:20.193Z,95279.94
2022-12-18T16:01:53.936Z,95275.53
2022-12-18T16:04:22.408Z,95281.75
2022-12-18T16:09:37.830Z,95268.91
2022-12-18T16:12:05.216Z,95278.53
2022-12-18T16:14:33.213Z,95275.13
2022-12-18T16:17:06.435Z,95278.53
2022-12-18T16:19:33.245Z,95268.09
2022-12-18T16:22:02.545Z,95280.34
2022-12-18T16:24:31.668Z,95273.09
2022-12-18T16:27:01.323Z,95273.53
2022-12-18T16:29:29.887Z,95285.75
2022-12-18T16:31:58.509Z,95274.53
2022-12-18T16:34:29.272Z,95276.53
2022-12-18T16:37:08.326Z,95272.09
2022-12-18T16:39:35.994Z,95267.50
2022-12-18T16:42:06.298Z,95278.13
2022-12-18T16:44:34.750Z,95274.53
2022-12-18T16:47:04.137Z,95269.50
2022-12-18T16:49:31.763Z,95261.88
2022-12-18T16:51:58.476Z,95272.09
2022-12-18T16:54:26.652Z,95261.28
2022-12-18T16:56:53.678Z,95259.25
2022-12-18T16:59:21.380Z,95250.25
2022-12-18T17:01:49.105Z,95250.25
2022-12-18T17:04:17.211Z,95251.88
2022-12-18T17:06:46.043Z,95251.25
2022-12-18T17:09:16.791Z,95253.25
2022-12-18T17:11:44.578Z,95248.03
2022-12-18T17:14:15.009Z,95250.63
2022-12-18T17:16:42.061Z,95249.44
2022-12-18T17:19:13.717Z,95246.44
2022-12-18T17:21:45.741Z,95238.63
2022-12-18T17:24:12.426Z,95235.78
2022-12-18T17:26:39.771Z,95242.63
2022-12-18T17:29:06.621Z,95244.25
2022-12-18T17:31:34.143Z,95253.88
2022-12-18T17:34:04.468Z,95254.25
2022-12-18T17:36:32.349Z,95247.44
2022-12-18T17:39:02.226Z,95246.25
2022-12-18T17:41:30.599Z,95245.03
2022-12-18T17:44:03.413Z,95244.41
2022-12-18T17:46:32.312Z,95250.88
2022-12-18T17:49:00.285Z,95243.47
2022-12-18T17:51:27.464Z,95250.88
2022-12-18T17:53:54.384Z,95257.72
2022-12-18T17:56:23.214Z,95256.09
2022-12-18T17:58:50.944Z,95259.09
2022-12-18T18:01:21.494Z,95257.47
2022-12-18T18:03:51.536Z,95262.91
2022-12-18T18:06:20.554Z,95259.50
2022-12-18T18:08:47.416Z,95252.69
2022-12-18T18:11:37.016Z,95261.94
2022-12-18T18:14:06.998Z,95264.53
2022-12-18T18:16:33.954Z,95268.53
2022-12-18T18:19:03.348Z,95270.72
2022-12-18T18:21:31.457Z,95266.72
2022-12-18T18:24:01.763Z,95267.72
2022-12-18T18:26:31.214Z,95270.31
2022-12-18T18:28:59.842Z,95266.72
2022-12-18T18:31:30.147Z,95266.13
2022-12-18T18:33:57.204Z,95262.28
2022-12-18T18:36:24.487Z,95250.84
2022-12-18T18:38:52.149Z,95249.84
2022-12-18T18:41:19.303Z,95241.81
2022-12-18T18:43:46.338Z,95243.63
2022-12-18T18:46:15.413Z,95244.63
2022-12-18T18:48:43.770Z,95233.81
2022-12-18T18:51:20.148Z,95238.19
2022-12-18T18:53:50.309Z,95240.41
2022-12-18T18:59:05.556Z,95244.84
2022-12-18T19:01:32.419Z,95234.19
2022-12-18T19:03:59.188Z,95229.78
2022-12-18T19:06:28.466Z,95230.00
2022-12-18T19:08:57.196Z,95232.00
2022-12-18T19:11:44.111Z,95222.75
2022-12-18T19:14:13.312Z,95223.78
2022-12-18T19:16:40.959Z,95212.72
2022-12-18T19:19:07.853Z,95210.34
2022-12-18T19:21:35.754Z,95200.91
2022-12-18T19:24:02.918Z,95202.13
2022-12-18T19:26:30.255Z,95197.88
2022-12-18T19:29:04.321Z,95199.28
2022-12-18T19:31:35.709Z,95200.91
2022-12-18T19:34:04.225Z,95202.13
2022-12-18T19:36:32.366Z,95200.09
2022-12-18T19:39:01.001Z,95206.50
2022-12-18T19:41:31.200Z,95202.28
2022-12-18T19:43:59.957Z,95214.34
2022-12-18T19:46:28.639Z,95215.13
2022-12-18T19:48:55.326Z,95217.16
2022-12-18T19:51:27.852Z,95213.13
2022-12-18T19:53:58.828Z,95213.53
2022-12-18T19:56:28.756Z,95229.38
2022-12-18T19:58:55.888Z,95229.59
2022-12-18T20:01:24.842Z,95222.16
2022-12-18T20:03:53.654Z,95226.78
2022-12-18T20:06:26.141Z,95229.81
2022-12-18T20:08:56.819Z,95221.97
2022-12-18T20:11:28.392Z,95216.94
2022-12-18T20:13:55.112Z,95216.94
2022-12-18T20:16:21.807Z,95222.38
2022-12-18T20:18:49.267Z,95209.34
2022-12-18T20:21:16.328Z,95201.28
2022-12-18T20:23:43.611Z,95203.69
2022-12-18T20:26:10.748Z,95191.66
2022-12-18T20:28:40.332Z,95198.69
2022-12-18T20:31:13.665Z,95200.88
2022-12-18T20:33:41.907Z,95212.94
2022-12-18T20:36:14.292Z,95202.50
2022-12-18T20:38:42.173Z,95204.72
2022-12-18T20:41:17.241Z,95209.72
2022-12-18T20:43:45.056Z,95199.09
2022-12-18T20:46:14.619Z,95191.47
2022-12-18T20:48:42.524Z,95199.09
2022-12-18T20:51:13.457Z,95187.44
2022-12-18T20:53:41.973Z,95189.25
2022-12-18T20:56:17.773Z,95192.47
2022-12-18T20:58:48.601Z,95187.84
2022-12-18T21:01:18.981Z,95184.03
2022-12-18T21:03:46.970Z,95176.81
2022-12-18T21:06:15.472Z,95165.59
2022-12-18T21:08:42.511Z,95173.81
2022-12-18T21:11:40.157Z,95167.81
2022-12-18T21:14:11.250Z,95179.63
2022-12-18T21:16:39.963Z,95170.81
2022-12-18T21:19:07.088Z,95172.22
2022-12-18T21:21:35.898Z,95167.97
2022-12-18T21:24:06.370Z,95170.59
2022-12-18T21:26:33.365Z,95177.84
2022-12-18T21:29:03.101Z,95175.22
2022-12-18T21:31:33.365Z,95166.00
2022-12-18T21:34:02.031Z,95175.44
2022-12-18T21:36:30.254Z,95165.56
2022-12-18T21:38:58.428Z,95161.56
2022-12-18T21:41:45.443Z,95168.41
2022-12-18T21:44:14.969Z,95172.59
2022-12-18T21:46:44.250Z,95160.38
2022-12-18T21:49:14.404Z,95163.97
2022-12-18T21:51:41.498Z,95174.81
2022-12-18T21:54:08.192Z,95167.59
2022-12-18T21:56:56.154Z,95160.16
2022-12-18T21:59:24.158Z,95147.91
2022-12-18T22:01:52.456Z,95146.13
2022-12-18T22:04:20.378Z,95152.34
2022-12-18T22:06:49.080Z,95137.69
2022-12-18T22:09:19.301Z,95144.72
2022-12-18T22:11:47.156Z,95142.50
2022-12-18T22:14:14.835Z,95156.34
2022-12-18T22:16:42.562Z,95173.81
2022-12-18T22:19:11.655Z,95168.22
2022-12-18T22:21:41.148Z,95165.59
2022-12-18T22:24:20.130Z,95166.81
2022-12-18T22:26:47.326Z,95155.53
2022-12-18T22:29:35.296Z,95157.16
2022-12-18T22:32:02.522Z,95155.53
2022-12-18T22:34:29.255Z,95159.97
2022-12-18T22:36:56.735Z,95159.75
2022-12-18T22:39:26.998Z,95159.16
2022-12-18T22:41:55.757Z,95155.75
2022-12-18T22:44:22.557Z,95148.13
2022-12-18T22:47:00.629Z,95153.34
2022-12-18T22:49:35.091Z,95153.13
2022-12-18T22:52:03.780Z,95150.94
2022-12-18T22:54:30.710Z,95148.72
2022-12-18T22:56:57.453Z,95143.50
2022-12-18T22:59:24.679Z,95139.09
2022-12-18T23:01:58.830Z,95141.31
2022-12-18T23:04:31.199Z,95124.25
2022-12-18T23:07:06.707Z,95141.53
2022-12-18T23:09:33.487Z,95136.69
2022-12-18T23:12:00.526Z,95126.88
2022-12-18T23:14:28.980Z,95121.84
2022-12-18T23:16:55.713Z,95120.25
2022-12-18T23:19:23.642Z,95121.44
2022-12-18T23:21:51.283Z,95129.06
2022-12-18T23:24:18.184Z,95128.88
2022-12-18T23:26:44.850Z,95131.88
2022-12-18T23:29:11.490Z,95125.47
2022-12-18T23:31:39.521Z,95132.28
2022-12-18T23:34:06.986Z,95133.50
2022-12-18T23:36:45.219Z,95116.63
2022-12-18T23:39:19.263Z,95109.00
2022-12-18T23:41:56.587Z,95096.75
2022-12-18T23:44:23.462Z,95106.56
2022-12-18T23:46:50.382Z,95106.16
2022-12-18T23:49:17.134Z,95108.38
2022-12-18T23:51:43.768Z,95119.00
2022-12-18T23:54:10.921Z,95111.19
2022-12-18T23:56:37.781Z,95106.56
2022-12-18T23:59:04.580Z,95099.94
